This is the latest recevied weather packets stored in our database for station/object W1SCW. If no packets are shown the sender has not sent any weather packets the latest 10 day(s).
| Time | Temp. | Humidity | Pressure | Rain* | Wind** | Luminosity | Snow |
|---|---|---|---|---|---|---|---|
| 1788536332 | 32.22° C | 73% | 1013 hPa | 0 mm | - | 704 W/m² | - |
| 1788536028 | 31.67° C | 74% | 1013.1 hPa | 0 mm | - | 201 W/m² | - |
| 1788535724 | 32.22° C | 75% | 1013 hPa | 0 mm | - | 170 W/m² | - |
| 1788535419 | 32.22° C | 76% | 1013.1 hPa | 0 mm | - | 205 W/m² | - |
| 1788535113 | 31.11° C | 79% | 1013.1 hPa | 0 mm | - | 183 W/m² | - |
| 1788534813 | 31.11° C | 79% | 1013.1 hPa | 0 mm | - | 153 W/m² | - |
| 1788534509 | 32.22° C | 78% | 1012.9 hPa | 0 mm | - | 163 W/m² | - |
| 1788534204 | 32.78° C | 77% | 1012.8 hPa | 0 mm | - | 383 W/m² | - |
| 1788533901 | 32.78° C | 79% | 1012.8 hPa | 0 mm | - | 594 W/m² | - |
| 1788533598 | 31.11° C | 81% | 1013.1 hPa | 0 mm | - | 545 W/m² | - |
| 1788533293 | 31.67° C | 82% | 1013.2 hPa | 0 mm | - | 415 W/m² | - |
| 1788532988 | 31.67° C | 82% | 1012.9 hPa | 0 mm | - | 415 W/m² | - |
| 1788532684 | 31.67° C | 82% | 1013.1 hPa | 0 mm | - | 415 W/m² | - |
| 1788532380 | 29.44° C | 89% | 1012.9 hPa | 0 mm | - | 157 W/m² | - |
| 1788532076 | 29.44° C | 89% | 1012.8 hPa | 0 mm | - | 157 W/m² | - |
| 1788531772 | 29.44° C | 89% | 1012.9 hPa | 0 mm | - | 157 W/m² | - |
| 1788531472 | 29.44° C | 89% | 1013.1 hPa | 0 mm | - | 157 W/m² | - |
| 1788531167 | 28.89° C | 92% | 1013 hPa | 0 mm | - | 146 W/m² | - |
| 1788530863 | 28.89° C | 92% | 1013.1 hPa | 0 mm | - | 146 W/m² | - |
| 1788530558 | 28.89° C | 92% | 1012.9 hPa | 0 mm | - | 146 W/m² | - |
| 1788530257 | 28.33° C | 92% | 1013 hPa | 0 mm | - | 152 W/m² | - |
| 1788529952 | 28.33° C | 92% | 1013 hPa | 0 mm | - | 106 W/m² | - |
| 1788529648 | 28.33° C | 92% | 1012.8 hPa | 0 mm | - | 106 W/m² | - |
| 1788529348 | 27.78° C | 92% | 1013 hPa | 0 mm | - | 74 W/m² | - |
| 1788529042 | 28.33° C | 92% | 1013 hPa | 0 mm | - | 73 W/m² | - |
* Rain latest hour (hover to see other rain measurements)
** Current wind speed in m/s (hover to see current wind gust speed)